sensor_id;sensor_type;location;lat;lon;timestamp;temperature;humidity
39849;DHT22;25518;47.878;15.914;2022-09-09T09:47:44;19.90;99.90
39849;DHT22;25518;47.878;15.914;2022-09-09T09:50:19;20.10;99.90
39849;DHT22;25518;47.878;15.914;2022-09-09T09:52:58;20.40;99.90
39849;DHT22;25518;47.878;15.914;2022-09-09T09:55:25;20.30;99.90
39849;DHT22;25518;47.878;15.914;2022-09-09T09:57:53;20.00;99.90
39849;DHT22;25518;47.878;15.914;2022-09-09T10:00:22;19.60;99.90
39849;DHT22;25518;47.878;15.914;2022-09-09T10:02:49;19.10;99.90
39849;DHT22;25518;47.878;15.914;2022-09-09T10:05:21;18.90;99.90
39849;DHT22;25518;47.878;15.914;2022-09-09T10:08:00;18.90;99.90
39849;DHT22;25518;47.878;15.914;2022-09-09T10:10:41;19.10;99.90
39849;DHT22;25518;47.878;15.914;2022-09-09T10:19:04;21.20;99.90
39849;DHT22;25518;47.878;15.914;2022-09-09T10:24:36;21.90;99.90
39849;DHT22;25518;47.878;15.914;2022-09-09T10:32:40;22.40;99.90
39849;DHT22;25518;47.878;15.914;2022-09-09T10:35:10;22.50;99.90
39849;DHT22;25518;47.878;15.914;2022-09-09T10:38:15;22.40;99.90
39849;DHT22;25518;47.878;15.914;2022-09-09T10:43:46;22.10;99.90
39849;DHT22;25518;47.878;15.914;2022-09-09T10:47:11;22.20;99.90
39849;DHT22;25518;47.878;15.914;2022-09-09T10:49:31;22.10;99.90
39849;DHT22;25518;47.878;15.914;2022-09-09T10:57:45;22.80;99.90
39849;DHT22;25518;47.878;15.914;2022-09-09T11:00:17;22.90;99.90
39849;DHT22;25518;47.878;15.914;2022-09-09T11:02:49;22.60;99.90
39849;DHT22;25518;47.878;15.914;2022-09-09T11:05:20;22.70;99.90
39849;DHT22;25518;47.878;15.914;2022-09-09T11:07:59;22.50;99.90
39849;DHT22;25518;47.878;15.914;2022-09-09T11:12:59;22.70;99.90
39849;DHT22;25518;47.878;15.914;2022-09-09T11:15:34;22.90;99.90
39849;DHT22;25518;47.878;15.914;2022-09-09T11:18:03;22.90;99.90
39849;DHT22;25518;47.878;15.914;2022-09-09T11:20:30;22.90;99.90
39849;DHT22;25518;47.878;15.914;2022-09-09T11:23:03;22.90;99.90
39849;DHT22;25518;47.878;15.914;2022-09-09T11:25:36;22.80;99.90
39849;DHT22;25518;47.878;15.914;2022-09-09T11:33:37;22.70;99.90
39849;DHT22;25518;47.878;15.914;2022-09-09T11:38:58;22.70;99.90
39849;DHT22;25518;47.878;15.914;2022-09-09T11:41:33;22.60;99.90
39849;DHT22;25518;47.878;15.914;2022-09-09T11:44:08;22.50;99.90
39849;DHT22;25518;47.878;15.914;2022-09-09T11:46:38;22.50;99.90
39849;DHT22;25518;47.878;15.914;2022-09-09T11:49:23;22.40;99.90
39849;DHT22;25518;47.878;15.914;2022-09-09T11:51:51;22.20;99.90
39849;DHT22;25518;47.878;15.914;2022-09-09T11:54:34;22.10;99.90
39849;DHT22;25518;47.878;15.914;2022-09-09T11:59:56;21.70;99.90
39849;DHT22;25518;47.878;15.914;2022-09-09T12:02:24;21.50;99.90
39849;DHT22;25518;47.878;15.914;2022-09-09T12:05:13;21.40;99.90
39849;DHT22;25518;47.878;15.914;2022-09-09T12:07:50;21.20;99.90
39849;DHT22;25518;47.878;15.914;2022-09-09T12:10:24;21.10;99.90
39849;DHT22;25518;47.878;15.914;2022-09-09T12:12:52;21.10;99.90
39849;DHT22;25518;47.878;15.914;2022-09-09T12:15:27;21.10;99.90
39849;DHT22;25518;47.878;15.914;2022-09-09T12:17:57;21.00;99.90
39849;DHT22;25518;47.878;15.914;2022-09-09T12:20:34;20.90;99.90
39849;DHT22;25518;47.878;15.914;2022-09-09T12:23:10;20.50;99.90
39849;DHT22;25518;47.878;15.914;2022-09-09T12:25:49;20.30;99.90
39849;DHT22;25518;47.878;15.914;2022-09-09T12:28:40;20.20;99.90
39849;DHT22;25518;47.878;15.914;2022-09-09T12:31:15;20.10;99.90
39849;DHT22;25518;47.878;15.914;2022-09-09T12:33:46;19.90;99.90
39849;DHT22;25518;47.878;15.914;2022-09-09T12:36:15;19.70;99.90
39849;DHT22;25518;47.878;15.914;2022-09-09T12:38:43;19.60;99.90
39849;DHT22;25518;47.878;15.914;2022-09-09T12:41:27;19.50;99.90
39849;DHT22;25518;47.878;15.914;2022-09-09T12:44:10;19.50;99.90
39849;DHT22;25518;47.878;15.914;2022-09-09T12:46:43;19.50;99.90
39849;DHT22;25518;47.878;15.914;2022-09-09T12:49:30;19.40;99.90
39849;DHT22;25518;47.878;15.914;2022-09-09T12:52:23;19.00;99.90
39849;DHT22;25518;47.878;15.914;2022-09-09T12:54:50;18.90;99.90
39849;DHT22;25518;47.878;15.914;2022-09-09T12:57:18;18.90;99.90
39849;DHT22;25518;47.878;15.914;2022-09-09T12:59:44;18.90;99.90
39849;DHT22;25518;47.878;15.914;2022-09-09T13:02:19;18.90;99.90
39849;DHT22;25518;47.878;15.914;2022-09-09T13:04:45;18.90;99.90
39849;DHT22;25518;47.878;15.914;2022-09-09T13:07:13;18.90;99.90
39849;DHT22;25518;47.878;15.914;2022-09-09T13:09:41;19.00;99.90
39849;DHT22;25518;47.878;15.914;2022-09-09T13:12:13;19.10;99.90
39849;DHT22;25518;47.878;15.914;2022-09-09T13:14:43;19.30;99.90
39849;DHT22;25518;47.878;15.914;2022-09-09T13:17:22;19.40;99.90
39849;DHT22;25518;47.878;15.914;2022-09-09T13:19:50;19.50;99.90
39849;DHT22;25518;47.878;15.914;2022-09-09T13:22:38;19.40;99.90
39849;DHT22;25518;47.878;15.914;2022-09-09T13:25:21;19.30;99.90
39849;DHT22;25518;47.878;15.914;2022-09-09T13:28:05;19.20;99.90
39849;DHT22;25518;47.878;15.914;2022-09-09T13:30:35;19.20;99.90
39849;DHT22;25518;47.878;15.914;2022-09-09T13:35:32;19.40;99.90
39849;DHT22;25518;47.878;15.914;2022-09-09T13:38:06;19.30;99.90
39849;DHT22;25518;47.878;15.914;2022-09-09T13:40:33;19.30;99.90
39849;DHT22;25518;47.878;15.914;2022-09-09T13:43:00;19.30;99.90
39849;DHT22;25518;47.878;15.914;2022-09-09T13:45:27;19.40;99.90
39849;DHT22;25518;47.878;15.914;2022-09-09T13:47:54;19.30;99.90
39849;DHT22;25518;47.878;15.914;2022-09-09T13:52:48;19.30;99.90
39849;DHT22;25518;47.878;15.914;2022-09-09T13:55:15;19.20;99.90
39849;DHT22;25518;47.878;15.914;2022-09-09T13:57:54;19.20;99.90
39849;DHT22;25518;47.878;15.914;2022-09-09T14:00:21;19.10;99.90
39849;DHT22;25518;47.878;15.914;2022-09-09T14:02:48;19.10;99.90
39849;DHT22;25518;47.878;15.914;2022-09-09T14:05:15;19.10;99.90
39849;DHT22;25518;47.878;15.914;2022-09-09T14:07:42;19.00;99.90
39849;DHT22;25518;47.878;15.914;2022-09-09T14:10:09;19.00;99.90
39849;DHT22;25518;47.878;15.914;2022-09-09T14:12:35;19.00;99.90
39849;DHT22;25518;47.878;15.914;2022-09-09T14:15:04;18.90;99.90
39849;DHT22;25518;47.878;15.914;2022-09-09T14:17:30;18.90;99.90
39849;DHT22;25518;47.878;15.914;2022-09-09T14:19:57;18.80;99.90
39849;DHT22;25518;47.878;15.914;2022-09-09T14:22:24;18.80;99.90
39849;DHT22;25518;47.878;15.914;2022-09-09T14:24:51;18.80;99.90
39849;DHT22;25518;47.878;15.914;2022-09-09T14:27:17;18.80;99.90
39849;DHT22;25518;47.878;15.914;2022-09-09T14:29:44;18.70;99.90
39849;DHT22;25518;47.878;15.914;2022-09-09T14:32:11;18.60;99.90
39849;DHT22;25518;47.878;15.914;2022-09-09T14:34:37;18.50;99.90
39849;DHT22;25518;47.878;15.914;2022-09-09T14:37:03;18.40;99.90
39849;DHT22;25518;47.878;15.914;2022-09-09T14:39:30;18.40;99.90
39849;DHT22;25518;47.878;15.914;2022-09-09T14:41:56;18.40;99.90
39849;DHT22;25518;47.878;15.914;2022-09-09T14:44:22;18.50;99.90
39849;DHT22;25518;47.878;15.914;2022-09-09T14:46:48;18.50;99.90
39849;DHT22;25518;47.878;15.914;2022-09-09T14:49:16;18.50;99.90
39849;DHT22;25518;47.878;15.914;2022-09-09T14:51:42;18.60;99.90
39849;DHT22;25518;47.878;15.914;2022-09-09T14:54:08;18.70;99.90
39849;DHT22;25518;47.878;15.914;2022-09-09T14:56:34;18.70;99.90
39849;DHT22;25518;47.878;15.914;2022-09-09T14:59:00;18.70;99.90
39849;DHT22;25518;47.878;15.914;2022-09-09T15:01:28;18.70;99.90
39849;DHT22;25518;47.878;15.914;2022-09-09T15:03:56;18.70;99.90
39849;DHT22;25518;47.878;15.914;2022-09-09T15:06:25;18.70;99.90
39849;DHT22;25518;47.878;15.914;2022-09-09T15:08:53;18.60;99.90
39849;DHT22;25518;47.878;15.914;2022-09-09T15:11:20;18.60;99.90
39849;DHT22;25518;47.878;15.914;2022-09-09T15:13:51;18.50;99.90
39849;DHT22;25518;47.878;15.914;2022-09-09T15:16:19;18.40;99.90
39849;DHT22;25518;47.878;15.914;2022-09-09T15:18:46;18.30;99.90
39849;DHT22;25518;47.878;15.914;2022-09-09T15:21:16;18.40;99.90
39849;DHT22;25518;47.878;15.914;2022-09-09T15:23:42;18.40;99.90
39849;DHT22;25518;47.878;15.914;2022-09-09T15:26:09;18.40;99.90
39849;DHT22;25518;47.878;15.914;2022-09-09T15:28:36;18.60;99.90
39849;DHT22;25518;47.878;15.914;2022-09-09T15:31:07;18.50;99.90
39849;DHT22;25518;47.878;15.914;2022-09-09T15:33:34;18.50;99.90
39849;DHT22;25518;47.878;15.914;2022-09-09T15:36:14;18.40;99.90
39849;DHT22;25518;47.878;15.914;2022-09-09T15:38:41;18.50;99.90
39849;DHT22;25518;47.878;15.914;2022-09-09T15:41:07;18.40;99.90
39849;DHT22;25518;47.878;15.914;2022-09-09T15:43:33;18.40;99.90
39849;DHT22;25518;47.878;15.914;2022-09-09T15:46:14;18.30;99.90
39849;DHT22;25518;47.878;15.914;2022-09-09T15:48:52;18.30;99.90
39849;DHT22;25518;47.878;15.914;2022-09-09T15:51:19;18.30;99.90
39849;DHT22;25518;47.878;15.914;2022-09-09T15:53:45;18.30;99.90
39849;DHT22;25518;47.878;15.914;2022-09-09T15:56:13;18.20;99.90
39849;DHT22;25518;47.878;15.914;2022-09-09T15:58:38;18.00;99.90
39849;DHT22;25518;47.878;15.914;2022-09-09T16:01:07;17.90;99.90
39849;DHT22;25518;47.878;15.914;2022-09-09T16:03:36;17.80;99.90
39849;DHT22;25518;47.878;15.914;2022-09-09T16:06:04;17.70;99.90
39849;DHT22;25518;47.878;15.914;2022-09-09T16:08:35;17.70;99.90
39849;DHT22;25518;47.878;15.914;2022-09-09T16:11:12;17.60;99.90
39849;DHT22;25518;47.878;15.914;2022-09-09T16:13:42;17.70;99.90
39849;DHT22;25518;47.878;15.914;2022-09-09T16:16:11;17.60;99.90
39849;DHT22;25518;47.878;15.914;2022-09-09T16:18:39;17.50;99.90
39849;DHT22;25518;47.878;15.914;2022-09-09T16:21:07;17.20;99.90
39849;DHT22;25518;47.878;15.914;2022-09-09T16:23:34;17.00;99.90
39849;DHT22;25518;47.878;15.914;2022-09-09T16:26:01;16.50;99.90
39849;DHT22;25518;47.878;15.914;2022-09-09T16:28:28;16.20;99.90
39849;DHT22;25518;47.878;15.914;2022-09-09T16:30:54;16.10;99.90
39849;DHT22;25518;47.878;15.914;2022-09-09T16:33:20;15.80;99.90
39849;DHT22;25518;47.878;15.914;2022-09-09T16:35:46;15.80;99.90
39849;DHT22;25518;47.878;15.914;2022-09-09T16:38:12;15.80;99.90
39849;DHT22;25518;47.878;15.914;2022-09-09T16:40:39;15.80;99.90
39849;DHT22;25518;47.878;15.914;2022-09-09T16:43:07;15.70;99.90
39849;DHT22;25518;47.878;15.914;2022-09-09T16:45:42;15.50;99.90
39849;DHT22;25518;47.878;15.914;2022-09-09T16:48:09;15.50;99.90
39849;DHT22;25518;47.878;15.914;2022-09-09T17:01:05;15.60;99.90
39849;DHT22;25518;47.878;15.914;2022-09-09T17:03:32;15.60;99.90
39849;DHT22;25518;47.878;15.914;2022-09-09T17:14:17;15.40;99.90
39849;DHT22;25518;47.878;15.914;2022-09-09T17:16:44;15.40;99.90
39849;DHT22;25518;47.878;15.914;2022-09-09T17:19:11;15.30;99.90
39849;DHT22;25518;47.878;15.914;2022-09-09T17:21:38;15.20;99.90
39849;DHT22;25518;47.878;15.914;2022-09-09T17:24:05;15.10;99.90
39849;DHT22;25518;47.878;15.914;2022-09-09T17:26:32;15.10;99.90
39849;DHT22;25518;47.878;15.914;2022-09-09T17:29:00;15.10;99.90
39849;DHT22;25518;47.878;15.914;2022-09-09T17:31:27;15.10;99.90
39849;DHT22;25518;47.878;15.914;2022-09-09T17:33:54;15.20;99.90
39849;DHT22;25518;47.878;15.914;2022-09-09T17:36:27;15.20;99.90
39849;DHT22;25518;47.878;15.914;2022-09-09T17:38:54;15.30;99.90
39849;DHT22;25518;47.878;15.914;2022-09-09T17:41:23;15.30;99.90
39849;DHT22;25518;47.878;15.914;2022-09-09T17:43:50;13.80;99.90
39849;DHT22;25518;47.878;15.914;2022-09-09T17:48:48;15.50;99.90
39849;DHT22;25518;47.878;15.914;2022-09-09T17:51:18;15.50;99.90
39849;DHT22;25518;47.878;15.914;2022-09-09T17:53:47;15.30;99.90
39849;DHT22;25518;47.878;15.914;2022-09-09T17:56:16;15.20;99.90
39849;DHT22;25518;47.878;15.914;2022-09-09T17:58:44;15.30;99.90
39849;DHT22;25518;47.878;15.914;2022-09-09T18:01:16;15.30;99.90
39849;DHT22;25518;47.878;15.914;2022-09-09T18:03:44;15.40;99.90
39849;DHT22;25518;47.878;15.914;2022-09-09T18:06:14;15.40;99.90
39849;DHT22;25518;47.878;15.914;2022-09-09T18:08:42;15.40;99.90
39849;DHT22;25518;47.878;15.914;2022-09-09T18:11:08;15.30;99.90
39849;DHT22;25518;47.878;15.914;2022-09-09T18:13:35;15.40;99.90
39849;DHT22;25518;47.878;15.914;2022-09-09T18:16:05;15.40;99.90
39849;DHT22;25518;47.878;15.914;2022-09-09T18:18:31;15.50;99.90
39849;DHT22;25518;47.878;15.914;2022-09-09T18:20:59;15.40;99.90
39849;DHT22;25518;47.878;15.914;2022-09-09T18:23:27;15.30;99.90
39849;DHT22;25518;47.878;15.914;2022-09-09T18:25:53;15.30;99.90
39849;DHT22;25518;47.878;15.914;2022-09-09T18:28:19;15.30;99.90
39849;DHT22;25518;47.878;15.914;2022-09-09T18:30:45;15.20;99.90
39849;DHT22;25518;47.878;15.914;2022-09-09T18:33:11;15.30;99.90
39849;DHT22;25518;47.878;15.914;2022-09-09T18:35:37;15.30;99.90
39849;DHT22;25518;47.878;15.914;2022-09-09T18:38:04;15.40;99.90
39849;DHT22;25518;47.878;15.914;2022-09-09T18:40:30;15.40;99.90
39849;DHT22;25518;47.878;15.914;2022-09-09T18:42:57;15.20;99.90
39849;DHT22;25518;47.878;15.914;2022-09-09T18:45:23;15.20;99.90
39849;DHT22;25518;47.878;15.914;2022-09-09T18:47:49;15.00;99.90
39849;DHT22;25518;47.878;15.914;2022-09-09T18:50:15;15.10;99.90
39849;DHT22;25518;47.878;15.914;2022-09-09T18:52:41;15.20;99.90
39849;DHT22;25518;47.878;15.914;2022-09-09T18:55:07;15.20;99.90
39849;DHT22;25518;47.878;15.914;2022-09-09T18:57:34;15.20;99.90
39849;DHT22;25518;47.878;15.914;2022-09-09T19:00:00;13.80;99.90
39849;DHT22;25518;47.878;15.914;2022-09-09T19:02:26;15.20;99.90
39849;DHT22;25518;47.878;15.914;2022-09-09T19:04:52;15.10;99.90
39849;DHT22;25518;47.878;15.914;2022-09-09T19:07:19;15.10;99.90
39849;DHT22;25518;47.878;15.914;2022-09-09T19:09:46;15.10;99.90
39849;DHT22;25518;47.878;15.914;2022-09-09T19:12:13;15.20;99.90
39849;DHT22;25518;47.878;15.914;2022-09-09T19:14:39;15.20;99.90
39849;DHT22;25518;47.878;15.914;2022-09-09T19:17:05;15.20;99.90
39849;DHT22;25518;47.878;15.914;2022-09-09T19:19:32;15.20;99.90
39849;DHT22;25518;47.878;15.914;2022-09-09T19:21:59;15.20;99.90
39849;DHT22;25518;47.878;15.914;2022-09-09T19:24:29;15.20;99.90
39849;DHT22;25518;47.878;15.914;2022-09-09T19:26:58;14.90;99.90
39849;DHT22;25518;47.878;15.914;2022-09-09T19:29:28;14.90;99.90
39849;DHT22;25518;47.878;15.914;2022-09-09T19:31:57;15.00;99.90
39849;DHT22;25518;47.878;15.914;2022-09-09T19:34:25;14.90;99.90
39849;DHT22;25518;47.878;15.914;2022-09-09T19:36:51;14.90;99.90
39849;DHT22;25518;47.878;15.914;2022-09-09T19:39:18;14.90;99.90
39849;DHT22;25518;47.878;15.914;2022-09-09T19:41:44;14.80;99.90
39849;DHT22;25518;47.878;15.914;2022-09-09T19:44:12;14.80;99.90
39849;DHT22;25518;47.878;15.914;2022-09-09T19:46:41;14.80;99.90
39849;DHT22;25518;47.878;15.914;2022-09-09T19:49:08;14.80;99.90
39849;DHT22;25518;47.878;15.914;2022-09-09T19:51:34;14.80;99.90
39849;DHT22;25518;47.878;15.914;2022-09-09T19:54:03;14.80;99.90
39849;DHT22;25518;47.878;15.914;2022-09-09T19:56:32;14.70;99.90
39849;DHT22;25518;47.878;15.914;2022-09-09T19:58:59;14.70;99.90
39849;DHT22;25518;47.878;15.914;2022-09-09T20:01:34;14.70;99.90
39849;DHT22;25518;47.878;15.914;2022-09-09T20:04:03;14.70;99.90
39849;DHT22;25518;47.878;15.914;2022-09-09T20:06:32;14.70;99.90
39849;DHT22;25518;47.878;15.914;2022-09-09T20:08:59;14.70;99.90
39849;DHT22;25518;47.878;15.914;2022-09-09T20:11:26;14.70;99.90
39849;DHT22;25518;47.878;15.914;2022-09-09T20:13:53;14.80;99.90
39849;DHT22;25518;47.878;15.914;2022-09-09T20:16:23;14.90;99.90
39849;DHT22;25518;47.878;15.914;2022-09-09T20:18:52;14.90;99.90
39849;DHT22;25518;47.878;15.914;2022-09-09T20:21:21;14.90;99.90
39849;DHT22;25518;47.878;15.914;2022-09-09T20:23:49;14.90;99.90
39849;DHT22;25518;47.878;15.914;2022-09-09T20:26:20;14.90;99.90
39849;DHT22;25518;47.878;15.914;2022-09-09T20:28:48;15.00;99.90
39849;DHT22;25518;47.878;15.914;2022-09-09T20:31:18;15.00;99.90
39849;DHT22;25518;47.878;15.914;2022-09-09T20:33:45;15.00;99.90
39849;DHT22;25518;47.878;15.914;2022-09-09T20:36:15;14.90;99.90
39849;DHT22;25518;47.878;15.914;2022-09-09T20:38:44;14.80;99.90
39849;DHT22;25518;47.878;15.914;2022-09-09T20:41:12;14.80;99.90
39849;DHT22;25518;47.878;15.914;2022-09-09T20:43:45;14.70;99.90
39849;DHT22;25518;47.878;15.914;2022-09-09T20:46:15;14.80;99.90
39849;DHT22;25518;47.878;15.914;2022-09-09T20:48:43;14.70;99.90
39849;DHT22;25518;47.878;15.914;2022-09-09T20:51:09;14.60;99.90
39849;DHT22;25518;47.878;15.914;2022-09-09T20:53:36;14.70;99.90
39849;DHT22;25518;47.878;15.914;2022-09-09T20:56:04;13.80;99.90
39849;DHT22;25518;47.878;15.914;2022-09-09T20:58:31;14.70;99.90
39849;DHT22;25518;47.878;15.914;2022-09-09T21:00:58;14.70;99.90
39849;DHT22;25518;47.878;15.914;2022-09-09T21:03:29;14.70;99.90
39849;DHT22;25518;47.878;15.914;2022-09-09T21:05:58;14.70;99.90
39849;DHT22;25518;47.878;15.914;2022-09-09T21:08:27;14.60;99.90
39849;DHT22;25518;47.878;15.914;2022-09-09T21:10:53;14.70;99.90
39849;DHT22;25518;47.878;15.914;2022-09-09T21:13:20;14.50;99.90
39849;DHT22;25518;47.878;15.914;2022-09-09T21:15:47;14.60;99.90
39849;DHT22;25518;47.878;15.914;2022-09-09T21:18:14;14.50;99.90
39849;DHT22;25518;47.878;15.914;2022-09-09T21:20:40;14.60;99.90
39849;DHT22;25518;47.878;15.914;2022-09-09T21:23:10;14.70;99.90
39849;DHT22;25518;47.878;15.914;2022-09-09T21:25:36;14.60;99.90
39849;DHT22;25518;47.878;15.914;2022-09-09T21:28:03;14.70;99.90
39849;DHT22;25518;47.878;15.914;2022-09-09T21:30:31;14.70;99.90
39849;DHT22;25518;47.878;15.914;2022-09-09T21:32:58;14.70;99.90
39849;DHT22;25518;47.878;15.914;2022-09-09T21:35:25;14.70;99.90
39849;DHT22;25518;47.878;15.914;2022-09-09T21:37:51;14.80;99.90
39849;DHT22;25518;47.878;15.914;2022-09-09T21:40:17;14.50;99.90
39849;DHT22;25518;47.878;15.914;2022-09-09T21:42:43;14.50;99.90
39849;DHT22;25518;47.878;15.914;2022-09-09T21:45:11;14.60;99.90
39849;DHT22;25518;47.878;15.914;2022-09-09T21:47:37;14.70;99.90
39849;DHT22;25518;47.878;15.914;2022-09-09T21:50:03;14.70;99.90
39849;DHT22;25518;47.878;15.914;2022-09-09T21:52:29;14.60;99.90
39849;DHT22;25518;47.878;15.914;2022-09-09T21:54:55;12.40;99.90
39849;DHT22;25518;47.878;15.914;2022-09-09T21:57:21;14.20;99.90
39849;DHT22;25518;47.878;15.914;2022-09-09T21:59:47;14.10;99.90
39849;DHT22;25518;47.878;15.914;2022-09-09T22:02:13;14.10;99.90
39849;DHT22;25518;47.878;15.914;2022-09-09T22:04:39;14.20;99.90
39849;DHT22;25518;47.878;15.914;2022-09-09T22:07:08;14.20;99.90
39849;DHT22;25518;47.878;15.914;2022-09-09T22:09:34;14.20;99.90
39849;DHT22;25518;47.878;15.914;2022-09-09T22:12:01;14.20;99.90
39849;DHT22;25518;47.878;15.914;2022-09-09T22:14:27;14.20;99.90
39849;DHT22;25518;47.878;15.914;2022-09-09T22:16:53;14.30;99.90
39849;DHT22;25518;47.878;15.914;2022-09-09T22:19:19;14.30;99.90
39849;DHT22;25518;47.878;15.914;2022-09-09T22:21:45;14.40;99.90
39849;DHT22;25518;47.878;15.914;2022-09-09T22:24:11;14.40;99.90
39849;DHT22;25518;47.878;15.914;2022-09-09T22:26:37;14.50;99.90
39849;DHT22;25518;47.878;15.914;2022-09-09T22:29:04;14.40;99.90
39849;DHT22;25518;47.878;15.914;2022-09-09T22:31:32;14.40;99.90
39849;DHT22;25518;47.878;15.914;2022-09-09T22:33:58;14.50;99.90
39849;DHT22;25518;47.878;15.914;2022-09-09T22:36:24;14.60;99.90
39849;DHT22;25518;47.878;15.914;2022-09-09T22:38:51;14.50;99.90
39849;DHT22;25518;47.878;15.914;2022-09-09T22:41:18;14.40;99.90
39849;DHT22;25518;47.878;15.914;2022-09-09T22:43:45;14.40;99.90
39849;DHT22;25518;47.878;15.914;2022-09-09T22:46:12;13.20;99.90
39849;DHT22;25518;47.878;15.914;2022-09-09T22:48:39;14.40;99.90
39849;DHT22;25518;47.878;15.914;2022-09-09T22:51:08;14.30;99.90
39849;DHT22;25518;47.878;15.914;2022-09-09T22:53:36;14.30;99.90
39849;DHT22;25518;47.878;15.914;2022-09-09T22:56:05;14.30;99.90
39849;DHT22;25518;47.878;15.914;2022-09-09T22:58:34;14.40;99.90
39849;DHT22;25518;47.878;15.914;2022-09-09T23:01:08;14.30;99.90
39849;DHT22;25518;47.878;15.914;2022-09-09T23:03:36;14.30;99.90
39849;DHT22;25518;47.878;15.914;2022-09-09T23:06:02;14.20;99.90
39849;DHT22;25518;47.878;15.914;2022-09-09T23:08:31;14.20;99.90
39849;DHT22;25518;47.878;15.914;2022-09-09T23:10:59;14.30;99.90
39849;DHT22;25518;47.878;15.914;2022-09-09T23:13:26;13.90;99.90
39849;DHT22;25518;47.878;15.914;2022-09-09T23:15:55;14.30;99.90
39849;DHT22;25518;47.878;15.914;2022-09-09T23:18:22;14.20;99.90
39849;DHT22;25518;47.878;15.914;2022-09-09T23:20:56;14.20;99.90
39849;DHT22;25518;47.878;15.914;2022-09-09T23:23:26;14.20;99.90
39849;DHT22;25518;47.878;15.914;2022-09-09T23:25:52;14.30;99.90
39849;DHT22;25518;47.878;15.914;2022-09-09T23:28:18;14.20;99.90
39849;DHT22;25518;47.878;15.914;2022-09-09T23:30:44;14.20;99.90
39849;DHT22;25518;47.878;15.914;2022-09-09T23:33:10;14.20;99.90
39849;DHT22;25518;47.878;15.914;2022-09-09T23:35:36;14.30;99.90
39849;DHT22;25518;47.878;15.914;2022-09-09T23:38:03;14.20;99.90
39849;DHT22;25518;47.878;15.914;2022-09-09T23:40:29;14.20;99.90
39849;DHT22;25518;47.878;15.914;2022-09-09T23:42:56;14.10;99.90
39849;DHT22;25518;47.878;15.914;2022-09-09T23:45:22;14.10;99.90
39849;DHT22;25518;47.878;15.914;2022-09-09T23:47:48;14.20;99.90
39849;DHT22;25518;47.878;15.914;2022-09-09T23:50:14;14.20;99.90
39849;DHT22;25518;47.878;15.914;2022-09-09T23:52:40;14.20;99.90
39849;DHT22;25518;47.878;15.914;2022-09-09T23:55:09;14.10;99.90
39849;DHT22;25518;47.878;15.914;2022-09-09T23:57:35;14.10;99.90
